Pagrindinis puslapis
METAR-TAF:

METAR-TAF

Oro uostai :

Naftos platforma

P11-b, Nyderlandai

platuma: 52-21-36N, ilguma: 3-20-30E, Aukštis: 24 m

Dabartinis oras

Ataskaita buvo paskelbta 36 minutes, ne 10:25 UTC
Vėjas 25 kt iš Šiaurės/Šiaurės Vakarų, svyruoja nuo Vakarų/Šiaurės Vakarų ir Šiaurės
Temperatūra 10°C
Drėgmė 82%
Slėgis 990 hPa
Matomumas 10 km arba daugiau
Mažai debesys ne aukštis 900 ft
Išsisklaidę debesys ne aukštis 1400 ft
Su prošvaistėmis ne aukštis 1700 ft

METAR: EHPG 051025Z AUTO 34025KT 300V360 9999 FEW009 SCT014 BKN017 10/07 Q0990

Laikas: 13:01 (11:01 UTC)


TAF: trūkstamas

Orai ataskaitas ir orų prognozės (METAR, TAF).

turimą stotys yra geltonos ir raudonos taškus žemėlapyje.

Perkelti pele per norėdami pamatyti stoties vardą.

Tada spustelėkite, norėdami matyti oro stebėjimo ir prognozės.

Norėdami pakeisti žemėlapį: spustelėkite ant žalios mygtukų su juodo kryžiaus žemyn,; žalią mygtuką su brūkšneliu, jei norite nutolinti; arba žalių rodyklių gretimoms žemėlapius.


METAR-TAF: